createdAt,value
2023-02-27T00:01:06.162Z,-0.42
2023-02-27T00:03:36.833Z,-0.14
2023-02-27T00:06:06.993Z,-0.09
2023-02-27T00:08:35.293Z,-0.24
2023-02-27T00:11:03.358Z,-0.26
2023-02-27T00:13:32.173Z,-0.15
2023-02-27T00:16:02.368Z,-0.14
2023-02-27T00:18:32.700Z,-0.14
2023-02-27T00:21:01.744Z,-0.25
2023-02-27T00:23:32.993Z,-0.26
2023-02-27T00:26:02.718Z,-0.25
2023-02-27T00:28:32.145Z,-0.32
2023-02-27T00:33:57.942Z,-0.11
2023-02-27T00:36:31.137Z,-0.42
2023-02-27T00:39:01.570Z,-0.39
2023-02-27T00:41:29.879Z,-0.17
2023-02-27T00:43:58.466Z,-0.10
2023-02-27T00:46:26.521Z,-0.06
2023-02-27T00:48:56.662Z,-0.33
2023-02-27T00:51:28.204Z,-0.17
2023-02-27T00:53:56.808Z,-0.18
2023-02-27T00:56:27.758Z,-0.23
2023-02-27T00:58:56.098Z,-0.15
2023-02-27T01:01:26.425Z,-0.15
2023-02-27T01:03:55.211Z,-0.14
2023-02-27T01:06:27.357Z,-0.52
2023-02-27T01:09:01.896Z,-0.14
2023-02-27T01:11:33.861Z,-0.18
2023-02-27T01:14:02.114Z,-0.18
2023-02-27T01:16:32.543Z,-0.06
2023-02-27T01:19:01.356Z,-0.05
2023-02-27T01:21:30.675Z,-0.18
2023-02-27T01:23:59.268Z,-0.15
2023-02-27T01:26:29.118Z,-0.09
2023-02-27T01:28:59.015Z,-0.20
2023-02-27T01:31:38.202Z,-0.20
2023-02-27T01:34:07.304Z,-0.23
2023-02-27T01:36:38.930Z,-0.16
2023-02-27T01:39:06.904Z,-0.21
2023-02-27T01:41:37.743Z,-0.14
2023-02-27T01:44:12.925Z,-0.25
2023-02-27T01:46:45.194Z,-0.15
2023-02-27T01:49:27.578Z,-0.12
2023-02-27T01:52:04.063Z,-0.08
2023-02-27T01:54:44.915Z,-0.15
2023-02-27T01:57:13.320Z,-0.09
2023-02-27T01:59:44.604Z,-0.20
2023-02-27T02:02:19.210Z,-0.22
2023-02-27T02:04:48.465Z,-0.20
2023-02-27T02:07:22.490Z,-0.15
2023-02-27T02:09:54.406Z,-0.32
2023-02-27T02:12:31.872Z,-0.31
2023-02-27T02:15:12.273Z,-0.28
2023-02-27T02:17:54.078Z,-0.33
2023-02-27T02:21:03.017Z,-0.32
2023-02-27T02:23:58.078Z,-0.26
2023-02-27T02:26:39.305Z,-0.43
2023-02-27T02:29:44.459Z,-0.33
2023-02-27T02:36:07.202Z,-0.59
2023-02-27T02:38:54.590Z,-0.69
2023-02-27T02:41:34.569Z,-0.41
2023-02-27T02:44:08.958Z,-0.46
2023-02-27T02:46:48.254Z,-0.42
2023-02-27T02:49:27.720Z,-0.36
2023-02-27T02:52:04.397Z,-0.42
2023-02-27T02:54:41.274Z,-0.43
2023-02-27T02:57:17.132Z,-0.62
2023-02-27T02:59:52.295Z,-0.47
2023-02-27T03:02:24.596Z,-0.62
2023-02-27T03:04:57.479Z,-0.44
2023-02-27T03:07:36.395Z,-0.70
2023-02-27T03:10:13.642Z,-0.68
2023-02-27T03:12:48.132Z,-0.48
2023-02-27T03:15:21.463Z,-0.56
2023-02-27T03:17:55.578Z,-0.50
2023-02-27T03:20:39.156Z,-0.86
2023-02-27T03:23:16.229Z,-0.62
2023-02-27T03:25:54.557Z,-0.60
2023-02-27T03:31:32.780Z,-0.64
2023-02-27T03:34:10.070Z,-0.63
2023-02-27T03:36:48.698Z,-0.64
2023-02-27T03:39:40.190Z,-0.56
2023-02-27T03:42:24.907Z,-0.56
2023-02-27T03:45:02.658Z,-0.57
2023-02-27T03:47:36.269Z,-0.73
2023-02-27T03:50:05.763Z,-1.00
2023-02-27T03:52:37.536Z,-0.62
2023-02-27T03:55:13.069Z,-0.57
2023-02-27T03:57:44.665Z,-0.57
2023-02-27T04:00:19.521Z,-0.88
2023-02-27T04:02:50.729Z,-0.63
2023-02-27T04:05:21.821Z,-0.65
2023-02-27T04:08:03.249Z,-0.82
2023-02-27T04:10:57.904Z,-0.83
2023-02-27T04:16:53.390Z,-0.83
2023-02-27T04:19:49.707Z,-0.95
2023-02-27T04:22:32.753Z,-0.95
2023-02-27T04:25:25.319Z,-0.99
2023-02-27T04:28:16.054Z,-0.95
2023-02-27T04:30:56.934Z,-1.27
2023-02-27T04:33:39.751Z,-1.11
2023-02-27T04:36:14.368Z,-1.01
2023-02-27T04:38:49.821Z,-1.17
2023-02-27T04:41:24.937Z,-1.41
2023-02-27T04:43:55.031Z,-1.21
2023-02-27T04:46:30.444Z,-1.17
2023-02-27T04:49:02.051Z,-1.13
2023-02-27T04:51:36.971Z,-1.18
2023-02-27T04:54:12.348Z,-1.34
2023-02-27T04:56:45.895Z,-1.17
2023-02-27T04:59:19.440Z,-1.13
2023-02-27T05:01:59.276Z,-1.20
2023-02-27T05:04:31.335Z,-1.13
2023-02-27T05:07:03.535Z,-1.64
2023-02-27T05:09:44.776Z,-1.59
2023-02-27T05:12:18.437Z,-1.30
2023-02-27T05:14:52.400Z,-1.37
2023-02-27T05:17:29.124Z,-1.38
2023-02-27T05:19:59.586Z,-1.46
2023-02-27T05:22:40.941Z,-1.49
2023-02-27T05:25:16.922Z,-1.58
2023-02-27T05:27:53.215Z,-1.37
2023-02-27T05:30:27.597Z,-1.39
2023-02-27T05:33:00.812Z,-1.40
2023-02-27T05:35:36.079Z,-1.43
2023-02-27T05:38:16.528Z,-1.62
2023-02-27T05:40:50.456Z,-1.61
2023-02-27T05:43:22.446Z,-1.54
2023-02-27T05:45:57.057Z,-1.83
2023-02-27T05:48:32.123Z,-1.62
2023-02-27T05:51:01.544Z,-1.41
2023-02-27T05:53:35.478Z,-1.43
2023-02-27T05:56:08.078Z,-1.58
2023-02-27T05:58:41.425Z,-1.35
2023-02-27T06:01:12.037Z,-1.30
2023-02-27T06:03:46.786Z,-1.50
2023-02-27T06:06:18.459Z,-1.37
2023-02-27T06:08:47.538Z,-1.15
2023-02-27T06:11:18.185Z,-1.25
2023-02-27T06:13:46.696Z,-1.08
2023-02-27T06:16:17.302Z,-1.24
2023-02-27T06:18:48.290Z,-1.26
2023-02-27T06:21:16.640Z,-1.23
2023-02-27T06:23:45.463Z,-1.31
2023-02-27T06:26:14.442Z,-1.30
2023-02-27T06:28:44.400Z,-1.45
2023-02-27T06:31:13.415Z,-1.23
2023-02-27T06:33:43.866Z,-1.23
2023-02-27T06:36:24.144Z,-1.38
2023-02-27T06:38:53.944Z,-1.18
2023-02-27T06:41:24.033Z,-1.11
2023-02-27T06:43:52.206Z,-1.28
2023-02-27T06:46:21.338Z,-1.10
2023-02-27T06:48:49.951Z,-0.88
2023-02-27T06:51:23.349Z,-0.86
2023-02-27T06:53:54.546Z,-0.83
2023-02-27T06:56:24.125Z,-0.82
2023-02-27T06:58:52.605Z,-0.91
2023-02-27T07:01:20.924Z,-0.69
2023-02-27T07:03:49.940Z,-0.84
2023-02-27T07:07:32.372Z,-0.65
2023-02-27T07:09:15.033Z,-0.69
2023-02-27T07:11:43.476Z,-0.49
2023-02-27T07:14:13.053Z,-0.56
2023-02-27T07:16:43.217Z,-0.48
2023-02-27T07:19:11.647Z,-0.56
2023-02-27T07:21:42.392Z,-0.54
2023-02-27T07:24:10.468Z,-0.55
2023-02-27T07:26:39.091Z,-0.22
2023-02-27T07:29:09.084Z,-0.31
2023-02-27T07:31:39.694Z,-0.11
2023-02-27T07:34:09.657Z,-0.16
2023-02-27T07:36:41.313Z,-0.01
2023-02-27T07:39:12.569Z,-0.12
2023-02-27T07:41:41.503Z,0.03
2023-02-27T07:44:32.790Z,-0.14
2023-02-27T07:47:06.843Z,0.03
2023-02-27T07:49:40.558Z,0.19
2023-02-27T07:52:11.228Z,0.17
2023-02-27T07:54:41.045Z,0.20
2023-02-27T07:57:08.973Z,0.32
2023-02-27T07:59:37.452Z,0.32
2023-02-27T08:02:08.065Z,0.31
2023-02-27T08:04:37.546Z,0.46
2023-02-27T08:07:06.345Z,0.53
2023-02-27T08:09:40.364Z,0.37
2023-02-27T08:12:10.337Z,0.56
2023-02-27T08:14:39.848Z,0.44
2023-02-27T08:17:09.988Z,0.66
2023-02-27T08:19:41.153Z,0.73
2023-02-27T08:22:09.390Z,0.78
2023-02-27T08:24:40.569Z,0.85
2023-02-27T08:27:09.160Z,1.11
2023-02-27T08:29:45.577Z,1.11
2023-02-27T08:32:15.905Z,1.20
2023-02-27T08:34:48.201Z,1.29
2023-02-27T08:37:20.672Z,1.06
2023-02-27T08:39:50.656Z,1.22
2023-02-27T08:42:19.763Z,1.07
2023-02-27T08:44:50.743Z,1.19
2023-02-27T08:47:22.607Z,1.51
2023-02-27T08:49:51.401Z,1.52
2023-02-27T08:52:20.660Z,1.61
2023-02-27T08:54:53.237Z,1.60
2023-02-27T08:57:24.114Z,1.53
2023-02-27T08:59:52.371Z,1.57
2023-02-27T09:02:23.573Z,1.79
2023-02-27T09:04:55.308Z,1.95
2023-02-27T09:07:23.296Z,1.87
2023-02-27T09:09:57.798Z,2.10
2023-02-27T09:12:26.038Z,2.22
2023-02-27T09:14:56.048Z,2.29
2023-02-27T09:17:25.864Z,2.52
2023-02-27T09:19:57.570Z,2.65
2023-02-27T09:22:26.420Z,2.83
2023-02-27T09:24:57.584Z,2.87
2023-02-27T09:27:26.789Z,3.17
2023-02-27T09:29:57.041Z,3.09
2023-02-27T09:32:27.627Z,3.18
2023-02-27T09:34:58.072Z,2.99
2023-02-27T09:37:28.499Z,3.42
2023-02-27T09:39:59.177Z,3.44
2023-02-27T09:42:36.732Z,3.64
2023-02-27T09:45:08.620Z,3.40
2023-02-27T09:47:41.648Z,3.11
2023-02-27T09:50:35.334Z,2.93
2023-02-27T09:53:03.957Z,2.49
2023-02-27T09:55:40.263Z,2.64
2023-02-27T09:58:26.451Z,2.60
2023-02-27T10:01:08.261Z,2.53
2023-02-27T10:03:55.447Z,2.81
2023-02-27T10:06:28.353Z,2.89
2023-02-27T10:09:07.348Z,2.72
2023-02-27T10:11:52.022Z,3.14
2023-02-27T10:14:33.762Z,3.09
2023-02-27T10:17:06.440Z,2.74
2023-02-27T10:19:38.872Z,2.93
2023-02-27T10:22:14.880Z,3.08
2023-02-27T10:24:53.009Z,3.61
2023-02-27T10:27:24.995Z,3.59
2023-02-27T10:29:58.118Z,3.77
2023-02-27T10:32:33.784Z,3.69
2023-02-27T10:35:11.308Z,3.90
2023-02-27T10:37:50.595Z,4.01
2023-02-27T10:40:20.777Z,4.36
2023-02-27T10:42:52.720Z,4.21
2023-02-27T10:45:21.216Z,4.45
2023-02-27T10:47:52.243Z,4.78
2023-02-27T10:50:30.763Z,4.36
2023-02-27T10:53:02.681Z,4.36
2023-02-27T10:55:33.203Z,4.44
2023-02-27T10:58:05.539Z,4.34
2023-02-27T11:00:50.089Z,4.57
2023-02-27T11:03:22.544Z,4.65
2023-02-27T11:06:00.903Z,4.69
2023-02-27T11:08:33.855Z,4.15
2023-02-27T11:11:04.893Z,4.38
2023-02-27T11:13:45.859Z,4.51
2023-02-27T11:16:19.792Z,4.30
2023-02-27T11:18:50.413Z,4.54
2023-02-27T11:21:32.498Z,4.44
2023-02-27T11:24:06.511Z,4.61
2023-02-27T11:26:37.481Z,4.73
2023-02-27T11:29:09.714Z,5.11
2023-02-27T11:31:38.937Z,4.81
2023-02-27T11:34:10.144Z,5.20
2023-02-27T11:36:50.969Z,5.53
2023-02-27T11:39:30.884Z,5.64
2023-02-27T11:42:07.020Z,6.24
2023-02-27T11:44:57.441Z,6.27
2023-02-27T11:47:31.612Z,6.27
2023-02-27T11:50:36.560Z,6.47
2023-02-27T11:53:20.122Z,6.67
2023-02-27T11:55:50.468Z,6.87
2023-02-27T11:58:23.017Z,6.64
2023-02-27T12:00:59.266Z,6.55
2023-02-27T12:03:41.377Z,6.18
2023-02-27T12:06:21.017Z,6.33
2023-02-27T12:08:54.558Z,5.80
2023-02-27T12:11:29.877Z,6.13
2023-02-27T12:14:20.536Z,5.72
2023-02-27T12:17:06.116Z,5.87
2023-02-27T12:19:41.445Z,6.00
2023-02-27T12:22:19.200Z,6.00
2023-02-27T12:24:54.158Z,6.27
2023-02-27T12:27:27.360Z,6.24
2023-02-27T12:30:04.462Z,6.36
2023-02-27T12:32:40.559Z,6.41
2023-02-27T12:35:22.837Z,6.43
2023-02-27T12:37:52.072Z,6.07
2023-02-27T12:43:28.339Z,5.64
2023-02-27T12:46:14.425Z,5.84
2023-02-27T12:54:37.846Z,5.86
2023-02-27T12:57:21.250Z,5.86
2023-02-27T12:59:59.205Z,5.77
2023-02-27T13:02:47.394Z,5.59
2023-02-27T13:05:44.651Z,6.00
2023-02-27T13:08:27.705Z,5.50
2023-02-27T13:11:06.848Z,5.52
2023-02-27T13:13:40.714Z,5.86
2023-02-27T13:16:18.012Z,6.04
2023-02-27T13:18:51.113Z,6.33
2023-02-27T13:21:37.025Z,6.20
2023-02-27T13:24:19.417Z,6.09
2023-02-27T13:26:57.063Z,6.23
2023-02-27T13:29:34.869Z,6.30
2023-02-27T13:32:27.293Z,6.16
2023-02-27T13:35:13.756Z,6.20
2023-02-27T13:38:03.585Z,6.10
2023-02-27T13:40:38.997Z,6.30
2023-02-27T13:43:40.515Z,6.07
2023-02-27T13:46:26.806Z,5.96
2023-02-27T13:49:29.129Z,6.10
2023-02-27T13:52:00.476Z,6.04
2023-02-27T13:54:36.759Z,6.12
2023-02-27T13:57:29.212Z,6.30
2023-02-27T14:00:08.868Z,6.23
2023-02-27T14:02:58.368Z,6.66
2023-02-27T14:05:39.353Z,6.83
2023-02-27T14:08:15.670Z,6.43
2023-02-27T14:10:58.585Z,6.52
2023-02-27T14:13:59.176Z,6.46
2023-02-27T14:17:06.450Z,6.36
2023-02-27T14:20:02.205Z,6.01
2023-02-27T14:23:03.771Z,6.02
2023-02-27T14:25:39.502Z,6.13
2023-02-27T14:28:19.110Z,6.16
2023-02-27T14:31:01.160Z,6.40
2023-02-27T14:33:40.749Z,6.46
2023-02-27T14:36:18.676Z,6.50
2023-02-27T14:38:47.575Z,6.66
2023-02-27T14:41:32.207Z,6.27
2023-02-27T14:44:01.107Z,6.02
2023-02-27T14:46:37.602Z,5.83
2023-02-27T14:49:22.182Z,5.89
2023-02-27T14:51:52.177Z,5.80
2023-02-27T14:54:23.720Z,5.64
2023-02-27T14:56:56.470Z,5.98
2023-02-27T14:59:29.317Z,6.00
2023-02-27T15:02:02.827Z,6.38
2023-02-27T15:04:34.531Z,6.49
2023-02-27T15:07:04.258Z,6.32
2023-02-27T15:09:43.074Z,6.33
2023-02-27T15:12:18.613Z,6.22
2023-02-27T15:14:58.674Z,6.15
2023-02-27T15:17:39.575Z,6.46
2023-02-27T15:20:30.771Z,6.41
2023-02-27T15:23:00.245Z,6.41
2023-02-27T15:25:33.996Z,6.27
2023-02-27T15:28:07.893Z,6.22
2023-02-27T15:30:39.328Z,6.57
2023-02-27T15:33:16.437Z,6.48
2023-02-27T15:35:47.631Z,6.33
2023-02-27T15:38:26.662Z,6.25
2023-02-27T15:40:57.229Z,6.17
2023-02-27T15:43:31.836Z,6.13
2023-02-27T15:46:00.525Z,5.70
2023-02-27T15:48:31.157Z,5.96
2023-02-27T15:51:17.400Z,5.75
2023-02-27T15:53:53.802Z,5.85
2023-02-27T15:56:27.596Z,5.60
2023-02-27T15:59:00.955Z,5.57
2023-02-27T16:01:32.877Z,5.34
2023-02-27T16:04:03.976Z,5.48
2023-02-27T16:06:45.032Z,5.21
2023-02-27T16:09:24.281Z,5.37
2023-02-27T16:12:22.744Z,5.41
2023-02-27T16:14:54.233Z,5.39
2023-02-27T16:17:29.623Z,5.37
2023-02-27T16:20:04.049Z,5.35
2023-02-27T16:22:42.398Z,5.09
2023-02-27T16:25:15.567Z,5.18
2023-02-27T16:27:53.039Z,5.11
2023-02-27T16:30:23.128Z,5.14
2023-02-27T16:33:01.116Z,5.11
2023-02-27T16:35:39.368Z,5.16
2023-02-27T16:38:15.048Z,5.13
2023-02-27T16:40:46.020Z,4.95
2023-02-27T16:43:19.609Z,5.05
2023-02-27T16:45:52.811Z,5.08
2023-02-27T16:48:21.497Z,4.90
2023-02-27T16:50:53.730Z,4.74
2023-02-27T16:53:26.156Z,4.87
2023-02-27T16:56:09.672Z,4.95
2023-02-27T16:58:41.313Z,4.82
2023-02-27T17:01:09.586Z,4.74
2023-02-27T17:03:41.784Z,4.79
2023-02-27T17:06:14.886Z,4.81
2023-02-27T17:08:45.563Z,4.80
2023-02-27T17:11:18.372Z,4.69
2023-02-27T17:13:46.569Z,4.65
2023-02-27T17:16:17.336Z,4.47
2023-02-27T17:18:46.091Z,4.63
2023-02-27T17:21:22.018Z,4.43
2023-02-27T17:23:53.488Z,4.59
2023-02-27T17:26:23.766Z,4.46
2023-02-27T17:28:58.209Z,4.49
2023-02-27T17:31:29.204Z,4.40
2023-02-27T17:34:00.139Z,4.30
2023-02-27T17:36:29.940Z,4.00
2023-02-27T17:39:04.055Z,4.11
2023-02-27T17:41:36.470Z,4.16
2023-02-27T17:44:06.937Z,4.08
2023-02-27T17:46:42.834Z,3.96
2023-02-27T17:49:13.546Z,3.90
2023-02-27T17:51:42.252Z,3.97
2023-02-27T17:54:12.470Z,3.91
2023-02-27T17:56:44.413Z,3.88
2023-02-27T17:59:13.993Z,3.57
2023-02-27T18:01:44.301Z,3.78
2023-02-27T18:04:12.826Z,3.72
2023-02-27T18:06:42.160Z,3.66
2023-02-27T18:09:13.223Z,3.63
2023-02-27T18:11:42.708Z,3.50
2023-02-27T18:14:10.969Z,3.52
2023-02-27T18:16:42.178Z,3.36
2023-02-27T18:19:11.299Z,3.56
2023-02-27T18:21:39.775Z,3.49
2023-02-27T18:27:53.476Z,3.45
2023-02-27T18:30:22.178Z,3.17
2023-02-27T18:33:00.935Z,3.44
2023-02-27T18:35:34.164Z,3.49
2023-02-27T18:38:04.779Z,3.13
2023-02-27T18:40:33.382Z,3.42
2023-02-27T18:43:09.236Z,3.35
2023-02-27T18:45:40.629Z,3.34
2023-02-27T18:48:13.022Z,3.41
2023-02-27T18:50:42.129Z,3.39
2023-02-27T18:53:11.385Z,3.13
2023-02-27T18:55:47.230Z,3.05
2023-02-27T18:58:18.062Z,3.26
2023-02-27T19:00:50.065Z,3.15
2023-02-27T19:03:19.564Z,2.97
2023-02-27T19:05:48.490Z,3.00
2023-02-27T19:08:20.229Z,2.91
2023-02-27T19:10:55.360Z,2.94
2023-02-27T19:13:28.156Z,2.80
2023-02-27T19:15:58.760Z,2.78
2023-02-27T19:18:28.507Z,2.74
2023-02-27T19:21:06.747Z,2.69
2023-02-27T19:23:36.341Z,2.55
2023-02-27T19:26:04.554Z,2.44
2023-02-27T19:28:36.108Z,2.48
2023-02-27T19:31:11.732Z,2.48
2023-02-27T19:33:41.150Z,2.60
2023-02-27T19:36:20.124Z,2.63
2023-02-27T19:38:48.409Z,2.87
2023-02-27T19:41:17.797Z,2.88
2023-02-27T19:43:49.954Z,2.80
2023-02-27T19:46:20.744Z,2.70
2023-02-27T19:48:49.479Z,2.71
2023-02-27T19:51:20.440Z,2.78
2023-02-27T19:54:13.400Z,2.78
2023-02-27T19:56:43.286Z,2.77
2023-02-27T19:59:15.150Z,2.82
2023-02-27T20:01:43.407Z,2.88
2023-02-27T20:04:14.822Z,2.87
2023-02-27T20:06:44.833Z,2.79
2023-02-27T20:09:16.672Z,2.85
2023-02-27T20:11:46.460Z,2.84
2023-02-27T20:14:20.393Z,3.00
2023-02-27T20:16:57.198Z,3.06
2023-02-27T20:19:26.821Z,2.99
2023-02-27T20:21:57.268Z,2.98
2023-02-27T20:24:27.313Z,3.12
2023-02-27T20:26:59.145Z,3.11
2023-02-27T20:29:29.168Z,3.16
2023-02-27T20:32:01.206Z,3.11
2023-02-27T20:34:31.036Z,3.08
2023-02-27T20:37:00.493Z,2.98
2023-02-27T20:39:31.474Z,3.07
2023-02-27T20:42:03.683Z,3.12
2023-02-27T20:44:33.082Z,3.13
2023-02-27T20:47:04.984Z,3.06
2023-02-27T20:49:35.608Z,2.99
2023-02-27T20:52:04.582Z,3.00
2023-02-27T20:57:19.602Z,2.69
2023-02-27T20:59:51.103Z,2.80
2023-02-27T21:02:21.930Z,2.86
2023-02-27T21:04:53.984Z,2.81
2023-02-27T21:07:22.931Z,2.81
2023-02-27T21:09:55.583Z,2.66
2023-02-27T21:12:23.625Z,2.75
2023-02-27T21:14:54.213Z,2.76
2023-02-27T21:17:23.388Z,2.77
2023-02-27T21:19:52.100Z,2.73
2023-02-27T21:22:23.850Z,2.72
2023-02-27T21:24:53.714Z,2.67
2023-02-27T21:27:26.339Z,2.66
2023-02-27T21:29:56.604Z,2.61
2023-02-27T21:32:25.023Z,2.59
2023-02-27T21:34:53.827Z,2.60
2023-02-27T21:37:22.848Z,2.50
2023-02-27T21:39:55.085Z,2.55
2023-02-27T21:42:25.298Z,2.60
2023-02-27T21:44:58.392Z,2.40
2023-02-27T21:47:29.682Z,2.32
2023-02-27T21:49:59.595Z,2.25
2023-02-27T21:52:28.410Z,2.37
2023-02-27T21:54:59.594Z,2.43
2023-02-27T21:57:31.732Z,2.40
2023-02-27T22:00:02.172Z,2.32
2023-02-27T22:02:30.609Z,2.22
2023-02-27T22:05:00.846Z,2.17
2023-02-27T22:07:31.060Z,2.22
2023-02-27T22:10:00.011Z,2.14
2023-02-27T22:12:28.065Z,2.14
2023-02-27T22:14:56.650Z,2.09
2023-02-27T22:17:26.469Z,1.92
2023-02-27T22:19:58.753Z,1.97
2023-02-27T22:22:28.066Z,1.91
2023-02-27T22:24:57.916Z,1.85
2023-02-27T22:27:25.899Z,1.82
2023-02-27T22:29:54.618Z,1.77
2023-02-27T22:32:29.303Z,1.71
2023-02-27T22:34:59.710Z,1.48
2023-02-27T22:37:29.197Z,1.77
2023-02-27T22:39:57.839Z,1.57
2023-02-27T22:42:26.921Z,1.75
2023-02-27T22:45:04.463Z,1.30
2023-02-27T22:47:36.971Z,1.80
2023-02-27T22:50:06.812Z,1.85
2023-02-27T22:52:41.182Z,1.88
2023-02-27T22:55:10.787Z,1.84
2023-02-27T22:57:38.623Z,1.63
2023-02-27T23:00:12.732Z,1.80
2023-02-27T23:02:44.668Z,1.83
2023-02-27T23:05:12.826Z,1.58
2023-02-27T23:07:44.653Z,1.93
2023-02-27T23:10:15.469Z,1.97
2023-02-27T23:12:43.802Z,2.07
2023-02-27T23:15:12.615Z,2.06
2023-02-27T23:17:56.637Z,2.12
2023-02-27T23:20:29.707Z,2.07
2023-02-27T23:22:59.374Z,1.96
2023-02-27T23:25:27.933Z,1.72
2023-02-27T23:27:56.642Z,1.83
2023-02-27T23:30:28.156Z,2.01
2023-02-27T23:33:00.882Z,1.97
2023-02-27T23:35:33.099Z,1.77
2023-02-27T23:38:04.330Z,1.65
2023-02-27T23:40:34.981Z,1.72
2023-02-27T23:43:04.456Z,1.66
2023-02-27T23:45:35.239Z,1.57
2023-02-27T23:48:08.814Z,1.62
2023-02-27T23:50:39.136Z,1.55
2023-02-27T23:53:10.206Z,1.56
2023-02-27T23:55:40.502Z,1.58
2023-02-27T23:58:11.896Z,1.55
